sensor_id;sensor_type;location;lat;lon;timestamp;P1;durP1;ratioP1;P2;durP2;ratioP2
40599;SDS011;26309;50.924;4.754;2023-06-05T00:02:19;7.40;;;3.47;;
40599;SDS011;26309;50.924;4.754;2023-06-05T00:04:44;9.30;;;3.63;;
40599;SDS011;26309;50.924;4.754;2023-06-05T00:07:11;9.32;;;3.28;;
40599;SDS011;26309;50.924;4.754;2023-06-05T00:09:37;4.85;;;3.45;;
40599;SDS011;26309;50.924;4.754;2023-06-05T00:12:03;5.63;;;3.05;;
40599;SDS011;26309;50.924;4.754;2023-06-05T00:14:29;5.78;;;3.35;;
40599;SDS011;26309;50.924;4.754;2023-06-05T00:16:55;8.40;;;3.88;;
40599;SDS011;26309;50.924;4.754;2023-06-05T00:19:22;6.05;;;3.40;;
40599;SDS011;26309;50.924;4.754;2023-06-05T00:21:48;8.70;;;3.88;;
40599;SDS011;26309;50.924;4.754;2023-06-05T00:24:15;5.18;;;3.72;;
40599;SDS011;26309;50.924;4.754;2023-06-05T00:26:41;8.57;;;4.10;;
40599;SDS011;26309;50.924;4.754;2023-06-05T00:29:08;8.27;;;3.88;;
40599;SDS011;26309;50.924;4.754;2023-06-05T00:31:34;7.97;;;3.85;;
40599;SDS011;26309;50.924;4.754;2023-06-05T00:34:00;7.65;;;4.20;;
40599;SDS011;26309;50.924;4.754;2023-06-05T00:36:26;6.45;;;4.03;;
40599;SDS011;26309;50.924;4.754;2023-06-05T00:38:53;10.65;;;3.72;;
40599;SDS011;26309;50.924;4.754;2023-06-05T00:41:18;8.85;;;3.85;;
40599;SDS011;26309;50.924;4.754;2023-06-05T00:43:44;7.78;;;4.25;;
40599;SDS011;26309;50.924;4.754;2023-06-05T00:46:10;8.05;;;3.95;;
40599;SDS011;26309;50.924;4.754;2023-06-05T00:48:37;6.18;;;3.70;;
40599;SDS011;26309;50.924;4.754;2023-06-05T00:51:05;8.45;;;3.85;;
40599;SDS011;26309;50.924;4.754;2023-06-05T00:53:32;10.30;;;4.05;;
40599;SDS011;26309;50.924;4.754;2023-06-05T00:56:02;8.05;;;3.83;;
40599;SDS011;26309;50.924;4.754;2023-06-05T00:58:28;12.02;;;3.83;;
40599;SDS011;26309;50.924;4.754;2023-06-05T01:00:56;7.45;;;4.15;;
40599;SDS011;26309;50.924;4.754;2023-06-05T01:03:22;6.95;;;4.70;;
40599;SDS011;26309;50.924;4.754;2023-06-05T01:05:48;10.60;;;4.30;;
40599;SDS011;26309;50.924;4.754;2023-06-05T01:08:14;7.95;;;4.10;;
40599;SDS011;26309;50.924;4.754;2023-06-05T01:10:42;9.43;;;3.95;;
40599;SDS011;26309;50.924;4.754;2023-06-05T01:13:23;8.45;;;4.22;;
40599;SDS011;26309;50.924;4.754;2023-06-05T01:15:51;8.32;;;3.80;;
40599;SDS011;26309;50.924;4.754;2023-06-05T01:18:20;8.77;;;4.10;;
40599;SDS011;26309;50.924;4.754;2023-06-05T01:20:47;6.40;;;3.92;;
40599;SDS011;26309;50.924;4.754;2023-06-05T01:23:13;8.48;;;4.07;;
40599;SDS011;26309;50.924;4.754;2023-06-05T01:25:42;9.38;;;4.60;;
40599;SDS011;26309;50.924;4.754;2023-06-05T01:28:21;8.43;;;4.10;;
40599;SDS011;26309;50.924;4.754;2023-06-05T01:31:09;4.47;;;3.63;;
40599;SDS011;26309;50.924;4.754;2023-06-05T01:33:43;7.60;;;4.10;;
40599;SDS011;26309;50.924;4.754;2023-06-05T01:36:17;8.65;;;3.90;;
40599;SDS011;26309;50.924;4.754;2023-06-05T01:38:44;7.47;;;4.35;;
40599;SDS011;26309;50.924;4.754;2023-06-05T01:41:13;8.82;;;4.90;;
40599;SDS011;26309;50.924;4.754;2023-06-05T01:43:39;8.48;;;4.45;;
40599;SDS011;26309;50.924;4.754;2023-06-05T01:46:06;11.05;;;4.90;;
40599;SDS011;26309;50.924;4.754;2023-06-05T01:48:33;10.10;;;4.60;;
40599;SDS011;26309;50.924;4.754;2023-06-05T01:51:00;12.60;;;4.85;;
40599;SDS011;26309;50.924;4.754;2023-06-05T01:53:27;8.93;;;4.90;;
40599;SDS011;26309;50.924;4.754;2023-06-05T01:55:54;12.70;;;4.80;;
40599;SDS011;26309;50.924;4.754;2023-06-05T01:58:23;11.65;;;4.40;;
40599;SDS011;26309;50.924;4.754;2023-06-05T02:00:50;9.95;;;4.53;;
40599;SDS011;26309;50.924;4.754;2023-06-05T02:03:18;10.02;;;4.97;;
40599;SDS011;26309;50.924;4.754;2023-06-05T02:05:44;15.48;;;4.90;;
40599;SDS011;26309;50.924;4.754;2023-06-05T02:08:11;8.13;;;4.95;;
40599;SDS011;26309;50.924;4.754;2023-06-05T02:10:38;11.13;;;4.22;;
40599;SDS011;26309;50.924;4.754;2023-06-05T02:13:09;7.40;;;4.80;;
40599;SDS011;26309;50.924;4.754;2023-06-05T02:15:35;8.50;;;4.75;;
40599;SDS011;26309;50.924;4.754;2023-06-05T02:18:02;8.45;;;4.38;;
40599;SDS011;26309;50.924;4.754;2023-06-05T02:20:30;8.13;;;4.63;;
40599;SDS011;26309;50.924;4.754;2023-06-05T02:22:57;7.22;;;4.68;;
40599;SDS011;26309;50.924;4.754;2023-06-05T02:25:24;8.65;;;5.03;;
40599;SDS011;26309;50.924;4.754;2023-06-05T02:27:52;10.05;;;4.80;;
40599;SDS011;26309;50.924;4.754;2023-06-05T02:30:18;8.35;;;4.95;;
40599;SDS011;26309;50.924;4.754;2023-06-05T02:32:45;6.72;;;4.70;;
40599;SDS011;26309;50.924;4.754;2023-06-05T02:35:12;11.48;;;4.63;;
40599;SDS011;26309;50.924;4.754;2023-06-05T02:37:39;7.43;;;5.05;;
40599;SDS011;26309;50.924;4.754;2023-06-05T02:40:10;8.40;;;5.05;;
40599;SDS011;26309;50.924;4.754;2023-06-05T02:42:37;7.38;;;5.32;;
40599;SDS011;26309;50.924;4.754;2023-06-05T02:45:03;6.25;;;4.97;;
40599;SDS011;26309;50.924;4.754;2023-06-05T02:47:30;8.20;;;5.20;;
40599;SDS011;26309;50.924;4.754;2023-06-05T02:49:59;12.13;;;6.13;;
40599;SDS011;26309;50.924;4.754;2023-06-05T02:52:25;17.13;;;5.60;;
40599;SDS011;26309;50.924;4.754;2023-06-05T02:54:53;8.68;;;5.13;;
40599;SDS011;26309;50.924;4.754;2023-06-05T02:57:19;16.30;;;5.47;;
40599;SDS011;26309;50.924;4.754;2023-06-05T02:59:44;10.60;;;5.75;;
40599;SDS011;26309;50.924;4.754;2023-06-05T03:02:11;5.95;;;5.35;;
40599;SDS011;26309;50.924;4.754;2023-06-05T03:04:37;9.05;;;5.07;;
40599;SDS011;26309;50.924;4.754;2023-06-05T03:07:08;12.52;;;5.22;;
40599;SDS011;26309;50.924;4.754;2023-06-05T03:09:34;9.48;;;5.93;;
40599;SDS011;26309;50.924;4.754;2023-06-05T03:12:01;8.98;;;6.03;;
40599;SDS011;26309;50.924;4.754;2023-06-05T03:14:27;14.95;;;6.10;;
40599;SDS011;26309;50.924;4.754;2023-06-05T03:16:53;14.82;;;6.60;;
40599;SDS011;26309;50.924;4.754;2023-06-05T03:19:22;9.10;;;6.13;;
40599;SDS011;26309;50.924;4.754;2023-06-05T03:21:47;15.77;;;6.05;;
40599;SDS011;26309;50.924;4.754;2023-06-05T03:24:15;8.82;;;6.10;;
40599;SDS011;26309;50.924;4.754;2023-06-05T03:26:41;8.90;;;5.50;;
40599;SDS011;26309;50.924;4.754;2023-06-05T03:29:09;11.65;;;6.25;;
40599;SDS011;26309;50.924;4.754;2023-06-05T03:31:36;9.23;;;5.70;;
40599;SDS011;26309;50.924;4.754;2023-06-05T03:34:02;10.63;;;5.90;;
40599;SDS011;26309;50.924;4.754;2023-06-05T03:36:29;7.95;;;5.88;;
40599;SDS011;26309;50.924;4.754;2023-06-05T03:38:57;13.00;;;6.90;;
40599;SDS011;26309;50.924;4.754;2023-06-05T03:41:23;7.80;;;5.63;;
40599;SDS011;26309;50.924;4.754;2023-06-05T03:43:50;9.75;;;6.25;;
40599;SDS011;26309;50.924;4.754;2023-06-05T03:46:16;11.23;;;6.35;;
40599;SDS011;26309;50.924;4.754;2023-06-05T03:48:46;9.32;;;6.90;;
40599;SDS011;26309;50.924;4.754;2023-06-05T03:51:14;9.73;;;6.30;;
40599;SDS011;26309;50.924;4.754;2023-06-05T03:53:47;8.18;;;6.22;;
40599;SDS011;26309;50.924;4.754;2023-06-05T03:56:20;10.48;;;6.88;;
40599;SDS011;26309;50.924;4.754;2023-06-05T03:58:47;10.30;;;7.50;;
40599;SDS011;26309;50.924;4.754;2023-06-05T04:01:13;15.48;;;7.95;;
40599;SDS011;26309;50.924;4.754;2023-06-05T04:03:39;12.52;;;7.35;;
40599;SDS011;26309;50.924;4.754;2023-06-05T04:06:05;10.95;;;7.07;;
40599;SDS011;26309;50.924;4.754;2023-06-05T04:08:33;10.43;;;7.25;;
40599;SDS011;26309;50.924;4.754;2023-06-05T04:11:00;16.08;;;6.70;;
40599;SDS011;26309;50.924;4.754;2023-06-05T04:13:25;12.10;;;6.53;;
40599;SDS011;26309;50.924;4.754;2023-06-05T04:15:51;12.77;;;6.28;;
40599;SDS011;26309;50.924;4.754;2023-06-05T04:18:18;8.50;;;6.82;;
40599;SDS011;26309;50.924;4.754;2023-06-05T04:20:43;6.93;;;6.22;;
40599;SDS011;26309;50.924;4.754;2023-06-05T04:23:09;11.85;;;6.53;;
40599;SDS011;26309;50.924;4.754;2023-06-05T04:25:35;10.95;;;6.75;;
40599;SDS011;26309;50.924;4.754;2023-06-05T04:28:01;9.60;;;6.18;;
40599;SDS011;26309;50.924;4.754;2023-06-05T04:30:28;14.57;;;7.50;;
40599;SDS011;26309;50.924;4.754;2023-06-05T04:32:54;16.98;;;6.93;;
40599;SDS011;26309;50.924;4.754;2023-06-05T04:35:21;9.63;;;6.60;;
40599;SDS011;26309;50.924;4.754;2023-06-05T04:37:47;11.43;;;7.00;;
40599;SDS011;26309;50.924;4.754;2023-06-05T04:40:15;11.93;;;6.93;;
40599;SDS011;26309;50.924;4.754;2023-06-05T04:42:43;14.43;;;8.00;;
40599;SDS011;26309;50.924;4.754;2023-06-05T04:45:09;13.35;;;7.80;;
40599;SDS011;26309;50.924;4.754;2023-06-05T04:47:35;11.70;;;8.13;;
40599;SDS011;26309;50.924;4.754;2023-06-05T04:50:01;10.75;;;7.88;;
40599;SDS011;26309;50.924;4.754;2023-06-05T04:52:33;20.48;;;7.50;;
40599;SDS011;26309;50.924;4.754;2023-06-05T04:55:05;12.35;;;7.53;;
40599;SDS011;26309;50.924;4.754;2023-06-05T04:57:31;12.27;;;6.78;;
40599;SDS011;26309;50.924;4.754;2023-06-05T04:59:57;12.77;;;7.40;;
40599;SDS011;26309;50.924;4.754;2023-06-05T05:02:23;16.55;;;8.05;;
40599;SDS011;26309;50.924;4.754;2023-06-05T05:04:49;15.18;;;7.68;;
40599;SDS011;26309;50.924;4.754;2023-06-05T05:07:16;9.52;;;7.60;;
40599;SDS011;26309;50.924;4.754;2023-06-05T05:09:42;10.75;;;7.40;;
40599;SDS011;26309;50.924;4.754;2023-06-05T05:12:09;9.05;;;6.95;;
40599;SDS011;26309;50.924;4.754;2023-06-05T05:14:36;12.57;;;7.53;;
40599;SDS011;26309;50.924;4.754;2023-06-05T05:17:02;9.40;;;6.93;;
40599;SDS011;26309;50.924;4.754;2023-06-05T05:19:29;9.30;;;7.10;;
40599;SDS011;26309;50.924;4.754;2023-06-05T05:21:55;10.32;;;6.55;;
40599;SDS011;26309;50.924;4.754;2023-06-05T05:24:21;8.55;;;7.30;;
40599;SDS011;26309;50.924;4.754;2023-06-05T05:26:48;9.27;;;7.13;;
40599;SDS011;26309;50.924;4.754;2023-06-05T05:29:16;10.45;;;7.32;;
40599;SDS011;26309;50.924;4.754;2023-06-05T05:31:42;9.35;;;6.88;;
40599;SDS011;26309;50.924;4.754;2023-06-05T05:34:12;10.93;;;7.45;;
40599;SDS011;26309;50.924;4.754;2023-06-05T05:36:37;13.25;;;8.10;;
40599;SDS011;26309;50.924;4.754;2023-06-05T05:39:03;9.38;;;7.28;;
40599;SDS011;26309;50.924;4.754;2023-06-05T05:41:30;12.20;;;7.47;;
40599;SDS011;26309;50.924;4.754;2023-06-05T05:43:55;13.57;;;8.20;;
40599;SDS011;26309;50.924;4.754;2023-06-05T05:46:21;10.85;;;7.22;;
40599;SDS011;26309;50.924;4.754;2023-06-05T05:48:47;10.40;;;7.32;;
40599;SDS011;26309;50.924;4.754;2023-06-05T05:51:13;12.93;;;7.78;;
40599;SDS011;26309;50.924;4.754;2023-06-05T05:53:42;11.00;;;7.78;;
40599;SDS011;26309;50.924;4.754;2023-06-05T05:56:07;10.20;;;7.85;;
40599;SDS011;26309;50.924;4.754;2023-06-05T05:58:33;11.45;;;7.75;;
40599;SDS011;26309;50.924;4.754;2023-06-05T06:00:59;13.82;;;7.60;;
40599;SDS011;26309;50.924;4.754;2023-06-05T06:03:25;13.82;;;8.50;;
40599;SDS011;26309;50.924;4.754;2023-06-05T06:05:52;13.25;;;8.27;;
40599;SDS011;26309;50.924;4.754;2023-06-05T06:08:18;9.80;;;7.57;;
40599;SDS011;26309;50.924;4.754;2023-06-05T06:10:45;9.57;;;8.25;;
40599;SDS011;26309;50.924;4.754;2023-06-05T06:13:12;13.63;;;7.35;;
40599;SDS011;26309;50.924;4.754;2023-06-05T06:15:38;11.82;;;7.50;;
40599;SDS011;26309;50.924;4.754;2023-06-05T06:18:05;12.77;;;8.13;;
40599;SDS011;26309;50.924;4.754;2023-06-05T06:20:31;11.48;;;7.97;;
40599;SDS011;26309;50.924;4.754;2023-06-05T06:22:58;13.40;;;8.43;;
40599;SDS011;26309;50.924;4.754;2023-06-05T06:25:24;14.27;;;7.45;;
40599;SDS011;26309;50.924;4.754;2023-06-05T06:27:57;10.23;;;8.52;;
40599;SDS011;26309;50.924;4.754;2023-06-05T06:30:26;11.25;;;8.18;;
40599;SDS011;26309;50.924;4.754;2023-06-05T06:32:56;15.25;;;8.13;;
40599;SDS011;26309;50.924;4.754;2023-06-05T06:35:25;10.48;;;8.10;;
40599;SDS011;26309;50.924;4.754;2023-06-05T06:37:54;11.05;;;7.65;;
40599;SDS011;26309;50.924;4.754;2023-06-05T06:40:21;13.05;;;8.45;;
40599;SDS011;26309;50.924;4.754;2023-06-05T06:42:48;10.10;;;7.75;;
40599;SDS011;26309;50.924;4.754;2023-06-05T06:45:14;16.05;;;8.60;;
40599;SDS011;26309;50.924;4.754;2023-06-05T06:47:40;11.85;;;8.73;;
40599;SDS011;26309;50.924;4.754;2023-06-05T06:50:06;12.35;;;8.80;;
40599;SDS011;26309;50.924;4.754;2023-06-05T06:52:32;15.60;;;9.50;;
40599;SDS011;26309;50.924;4.754;2023-06-05T06:54:58;14.85;;;9.05;;
40599;SDS011;26309;50.924;4.754;2023-06-05T06:57:24;12.23;;;8.55;;
40599;SDS011;26309;50.924;4.754;2023-06-05T06:59:51;13.65;;;9.07;;
40599;SDS011;26309;50.924;4.754;2023-06-05T07:02:19;11.18;;;8.80;;
40599;SDS011;26309;50.924;4.754;2023-06-05T07:04:48;15.98;;;9.07;;
40599;SDS011;26309;50.924;4.754;2023-06-05T07:07:15;12.77;;;8.63;;
40599;SDS011;26309;50.924;4.754;2023-06-05T07:09:43;14.25;;;9.13;;
40599;SDS011;26309;50.924;4.754;2023-06-05T07:12:14;16.20;;;9.48;;
40599;SDS011;26309;50.924;4.754;2023-06-05T07:14:41;11.05;;;8.55;;
40599;SDS011;26309;50.924;4.754;2023-06-05T07:17:07;12.50;;;9.35;;
40599;SDS011;26309;50.924;4.754;2023-06-05T07:19:34;15.90;;;9.02;;
40599;SDS011;26309;50.924;4.754;2023-06-05T07:22:04;15.32;;;9.80;;
40599;SDS011;26309;50.924;4.754;2023-06-05T07:24:31;17.08;;;9.02;;
40599;SDS011;26309;50.924;4.754;2023-06-05T07:27:00;14.75;;;9.38;;
40599;SDS011;26309;50.924;4.754;2023-06-05T07:29:27;13.15;;;9.23;;
40599;SDS011;26309;50.924;4.754;2023-06-05T07:31:55;11.30;;;8.65;;
40599;SDS011;26309;50.924;4.754;2023-06-05T07:34:22;12.38;;;9.80;;
40599;SDS011;26309;50.924;4.754;2023-06-05T07:36:49;14.68;;;10.43;;
40599;SDS011;26309;50.924;4.754;2023-06-05T07:39:17;13.10;;;10.23;;
40599;SDS011;26309;50.924;4.754;2023-06-05T07:41:44;14.82;;;9.65;;
40599;SDS011;26309;50.924;4.754;2023-06-05T07:44:11;10.95;;;9.20;;
40599;SDS011;26309;50.924;4.754;2023-06-05T07:46:40;20.95;;;11.02;;
40599;SDS011;26309;50.924;4.754;2023-06-05T07:49:08;15.52;;;9.40;;
40599;SDS011;26309;50.924;4.754;2023-06-05T07:51:35;11.95;;;9.70;;
40599;SDS011;26309;50.924;4.754;2023-06-05T07:54:11;16.13;;;11.25;;
40599;SDS011;26309;50.924;4.754;2023-06-05T07:56:38;13.05;;;10.35;;
40599;SDS011;26309;50.924;4.754;2023-06-05T07:59:04;12.77;;;10.70;;
40599;SDS011;26309;50.924;4.754;2023-06-05T08:01:31;15.90;;;10.52;;
40599;SDS011;26309;50.924;4.754;2023-06-05T08:04:04;12.80;;;10.48;;
40599;SDS011;26309;50.924;4.754;2023-06-05T08:06:32;14.25;;;10.32;;
40599;SDS011;26309;50.924;4.754;2023-06-05T08:09:03;16.50;;;10.95;;
40599;SDS011;26309;50.924;4.754;2023-06-05T08:11:50;13.40;;;10.73;;
40599;SDS011;26309;50.924;4.754;2023-06-05T08:14:15;17.77;;;10.93;;
40599;SDS011;26309;50.924;4.754;2023-06-05T08:16:41;22.50;;;11.25;;
40599;SDS011;26309;50.924;4.754;2023-06-05T08:19:08;16.65;;;11.25;;
40599;SDS011;26309;50.924;4.754;2023-06-05T08:21:34;16.05;;;10.07;;
40599;SDS011;26309;50.924;4.754;2023-06-05T08:24:02;16.17;;;10.60;;
40599;SDS011;26309;50.924;4.754;2023-06-05T08:26:28;13.23;;;10.98;;
40599;SDS011;26309;50.924;4.754;2023-06-05T08:28:54;15.95;;;11.35;;
40599;SDS011;26309;50.924;4.754;2023-06-05T08:31:20;15.10;;;11.43;;
40599;SDS011;26309;50.924;4.754;2023-06-05T08:33:46;15.27;;;10.52;;
40599;SDS011;26309;50.924;4.754;2023-06-05T08:36:11;13.60;;;11.02;;
40599;SDS011;26309;50.924;4.754;2023-06-05T08:38:37;14.27;;;11.60;;
40599;SDS011;26309;50.924;4.754;2023-06-05T08:41:04;13.15;;;11.20;;
40599;SDS011;26309;50.924;4.754;2023-06-05T08:43:36;16.90;;;11.95;;
40599;SDS011;26309;50.924;4.754;2023-06-05T08:46:07;15.60;;;10.90;;
40599;SDS011;26309;50.924;4.754;2023-06-05T08:48:41;15.65;;;11.35;;
40599;SDS011;26309;50.924;4.754;2023-06-05T08:51:11;16.67;;;11.45;;
40599;SDS011;26309;50.924;4.754;2023-06-05T08:53:47;14.27;;;11.57;;
40599;SDS011;26309;50.924;4.754;2023-06-05T08:56:35;17.63;;;11.80;;
40599;SDS011;26309;50.924;4.754;2023-06-05T08:59:01;16.73;;;11.60;;
40599;SDS011;26309;50.924;4.754;2023-06-05T09:01:30;13.65;;;10.52;;
40599;SDS011;26309;50.924;4.754;2023-06-05T09:03:57;13.40;;;10.35;;
40599;SDS011;26309;50.924;4.754;2023-06-05T09:06:23;14.38;;;10.63;;
40599;SDS011;26309;50.924;4.754;2023-06-05T09:08:49;13.05;;;11.48;;
40599;SDS011;26309;50.924;4.754;2023-06-05T09:11:28;17.15;;;11.07;;
40599;SDS011;26309;50.924;4.754;2023-06-05T09:13:56;16.23;;;11.35;;
40599;SDS011;26309;50.924;4.754;2023-06-05T09:16:39;15.02;;;10.15;;
40599;SDS011;26309;50.924;4.754;2023-06-05T09:19:09;17.65;;;10.88;;
40599;SDS011;26309;50.924;4.754;2023-06-05T09:21:36;15.30;;;11.18;;
40599;SDS011;26309;50.924;4.754;2023-06-05T09:24:16;14.05;;;10.80;;
40599;SDS011;26309;50.924;4.754;2023-06-05T09:26:47;17.85;;;11.82;;
40599;SDS011;26309;50.924;4.754;2023-06-05T09:29:21;14.90;;;11.10;;
40599;SDS011;26309;50.924;4.754;2023-06-05T09:31:48;16.00;;;10.82;;
40599;SDS011;26309;50.924;4.754;2023-06-05T09:34:53;12.88;;;9.75;;
40599;SDS011;26309;50.924;4.754;2023-06-05T09:37:09;14.40;;;11.70;;
40599;SDS011;26309;50.924;4.754;2023-06-05T09:39:39;15.00;;;11.82;;
40599;SDS011;26309;50.924;4.754;2023-06-05T09:42:08;16.77;;;11.48;;
40599;SDS011;26309;50.924;4.754;2023-06-05T09:44:34;16.83;;;10.55;;
40599;SDS011;26309;50.924;4.754;2023-06-05T09:47:02;16.80;;;10.57;;
40599;SDS011;26309;50.924;4.754;2023-06-05T09:52:07;13.82;;;10.77;;
40599;SDS011;26309;50.924;4.754;2023-06-05T09:54:36;16.73;;;10.15;;
40599;SDS011;26309;50.924;4.754;2023-06-05T09:57:03;14.50;;;10.07;;
40599;SDS011;26309;50.924;4.754;2023-06-05T09:59:31;13.55;;;10.30;;
40599;SDS011;26309;50.924;4.754;2023-06-05T10:02:00;15.18;;;10.82;;
40599;SDS011;26309;50.924;4.754;2023-06-05T10:04:29;13.57;;;9.15;;
40599;SDS011;26309;50.924;4.754;2023-06-05T10:07:03;16.33;;;10.63;;
40599;SDS011;26309;50.924;4.754;2023-06-05T10:09:37;12.90;;;9.40;;
40599;SDS011;26309;50.924;4.754;2023-06-05T10:12:15;13.10;;;8.80;;
40599;SDS011;26309;50.924;4.754;2023-06-05T10:14:42;11.93;;;8.82;;
40599;SDS011;26309;50.924;4.754;2023-06-05T10:17:29;14.90;;;10.02;;
40599;SDS011;26309;50.924;4.754;2023-06-05T10:19:55;15.02;;;9.75;;
40599;SDS011;26309;50.924;4.754;2023-06-05T10:22:21;15.50;;;9.50;;
40599;SDS011;26309;50.924;4.754;2023-06-05T10:24:52;13.60;;;10.60;;
40599;SDS011;26309;50.924;4.754;2023-06-05T10:27:42;12.00;;;9.18;;
40599;SDS011;26309;50.924;4.754;2023-06-05T10:30:25;16.70;;;9.07;;
40599;SDS011;26309;50.924;4.754;2023-06-05T10:33:17;12.27;;;8.52;;
40599;SDS011;26309;50.924;4.754;2023-06-05T10:38:19;12.38;;;9.82;;
40599;SDS011;26309;50.924;4.754;2023-06-05T10:40:54;14.68;;;8.48;;
40599;SDS011;26309;50.924;4.754;2023-06-05T10:43:28;71.85;;;11.63;;
40599;SDS011;26309;50.924;4.754;2023-06-05T10:46:02;17.40;;;8.77;;
40599;SDS011;26309;50.924;4.754;2023-06-05T10:51:33;14.50;;;9.13;;
40599;SDS011;26309;50.924;4.754;2023-06-05T10:54:14;10.48;;;8.15;;
40599;SDS011;26309;50.924;4.754;2023-06-05T10:57:02;16.55;;;8.60;;
40599;SDS011;26309;50.924;4.754;2023-06-05T10:59:33;11.70;;;8.27;;
40599;SDS011;26309;50.924;4.754;2023-06-05T11:07:19;11.68;;;7.72;;
40599;SDS011;26309;50.924;4.754;2023-06-05T11:15:34;10.68;;;7.05;;
40599;SDS011;26309;50.924;4.754;2023-06-05T11:20:53;12.32;;;6.93;;
40599;SDS011;26309;50.924;4.754;2023-06-05T11:23:20;9.85;;;6.95;;
40599;SDS011;26309;50.924;4.754;2023-06-05T11:25:47;7.55;;;6.18;;
40599;SDS011;26309;50.924;4.754;2023-06-05T11:28:14;8.23;;;6.55;;
40599;SDS011;26309;50.924;4.754;2023-06-05T11:31:06;8.48;;;6.22;;
40599;SDS011;26309;50.924;4.754;2023-06-05T11:33:32;12.60;;;6.70;;
40599;SDS011;26309;50.924;4.754;2023-06-05T11:36:03;9.32;;;6.22;;
40599;SDS011;26309;50.924;4.754;2023-06-05T11:38:32;7.68;;;5.93;;
40599;SDS011;26309;50.924;4.754;2023-06-05T11:40:59;9.23;;;5.68;;
40599;SDS011;26309;50.924;4.754;2023-06-05T11:43:30;10.25;;;5.50;;
40599;SDS011;26309;50.924;4.754;2023-06-05T11:45:57;13.70;;;5.57;;
40599;SDS011;26309;50.924;4.754;2023-06-05T11:48:24;6.93;;;5.20;;
40599;SDS011;26309;50.924;4.754;2023-06-05T11:51:00;8.48;;;5.63;;
40599;SDS011;26309;50.924;4.754;2023-06-05T11:53:28;7.95;;;5.03;;
40599;SDS011;26309;50.924;4.754;2023-06-05T11:55:56;10.10;;;6.40;;
40599;SDS011;26309;50.924;4.754;2023-06-05T11:58:29;7.82;;;5.38;;
40599;SDS011;26309;50.924;4.754;2023-06-05T12:01:09;7.35;;;4.72;;
40599;SDS011;26309;50.924;4.754;2023-06-05T12:03:46;6.88;;;4.45;;
40599;SDS011;26309;50.924;4.754;2023-06-05T12:06:13;6.47;;;4.97;;
40599;SDS011;26309;50.924;4.754;2023-06-05T12:08:41;11.27;;;4.53;;
40599;SDS011;26309;50.924;4.754;2023-06-05T12:11:26;7.65;;;4.13;;
40599;SDS011;26309;50.924;4.754;2023-06-05T12:13:54;9.13;;;4.82;;
40599;SDS011;26309;50.924;4.754;2023-06-05T12:16:30;6.97;;;4.85;;
40599;SDS011;26309;50.924;4.754;2023-06-05T12:19:10;9.38;;;5.43;;
40599;SDS011;26309;50.924;4.754;2023-06-05T12:21:38;8.00;;;4.53;;
40599;SDS011;26309;50.924;4.754;2023-06-05T12:24:05;6.70;;;3.97;;
40599;SDS011;26309;50.924;4.754;2023-06-05T12:29:24;8.38;;;4.20;;
40599;SDS011;26309;50.924;4.754;2023-06-05T12:31:53;6.75;;;3.78;;
40599;SDS011;26309;50.924;4.754;2023-06-05T12:37:06;7.82;;;3.47;;
40599;SDS011;26309;50.924;4.754;2023-06-05T12:39:33;5.55;;;3.15;;
40599;SDS011;26309;50.924;4.754;2023-06-05T12:42:00;3.25;;;2.78;;
40599;SDS011;26309;50.924;4.754;2023-06-05T12:44:26;4.70;;;2.90;;
40599;SDS011;26309;50.924;4.754;2023-06-05T12:46:52;6.80;;;3.30;;
40599;SDS011;26309;50.924;4.754;2023-06-05T12:49:18;5.40;;;3.15;;
40599;SDS011;26309;50.924;4.754;2023-06-05T12:51:44;9.80;;;3.25;;
40599;SDS011;26309;50.924;4.754;2023-06-05T12:54:10;7.70;;;3.40;;
40599;SDS011;26309;50.924;4.754;2023-06-05T12:56:36;5.78;;;3.47;;
40599;SDS011;26309;50.924;4.754;2023-06-05T12:59:03;4.68;;;2.97;;
40599;SDS011;26309;50.924;4.754;2023-06-05T13:01:29;6.63;;;4.10;;
40599;SDS011;26309;50.924;4.754;2023-06-05T13:03:56;7.10;;;3.45;;
40599;SDS011;26309;50.924;4.754;2023-06-05T13:06:22;5.57;;;2.95;;
40599;SDS011;26309;50.924;4.754;2023-06-05T13:08:49;11.25;;;3.67;;
40599;SDS011;26309;50.924;4.754;2023-06-05T13:11:16;8.05;;;3.50;;
40599;SDS011;26309;50.924;4.754;2023-06-05T13:13:42;6.38;;;3.28;;
40599;SDS011;26309;50.924;4.754;2023-06-05T13:16:09;6.53;;;3.60;;
40599;SDS011;26309;50.924;4.754;2023-06-05T13:18:35;5.00;;;4.00;;
40599;SDS011;26309;50.924;4.754;2023-06-05T13:21:04;9.88;;;3.53;;
40599;SDS011;26309;50.924;4.754;2023-06-05T13:23:31;7.75;;;3.83;;
40599;SDS011;26309;50.924;4.754;2023-06-05T13:25:57;6.32;;;3.60;;
40599;SDS011;26309;50.924;4.754;2023-06-05T13:28:24;4.63;;;3.10;;
40599;SDS011;26309;50.924;4.754;2023-06-05T13:30:53;10.40;;;3.50;;
40599;SDS011;26309;50.924;4.754;2023-06-05T13:33:19;5.72;;;3.17;;
40599;SDS011;26309;50.924;4.754;2023-06-05T13:35:45;5.75;;;4.05;;
40599;SDS011;26309;50.924;4.754;2023-06-05T13:38:11;5.07;;;3.35;;
40599;SDS011;26309;50.924;4.754;2023-06-05T13:40:37;9.30;;;3.30;;
40599;SDS011;26309;50.924;4.754;2023-06-05T13:43:03;9.18;;;3.70;;
40599;SDS011;26309;50.924;4.754;2023-06-05T13:45:29;9.70;;;3.45;;
40599;SDS011;26309;50.924;4.754;2023-06-05T13:47:55;7.93;;;3.40;;
40599;SDS011;26309;50.924;4.754;2023-06-05T13:50:21;5.15;;;3.63;;
40599;SDS011;26309;50.924;4.754;2023-06-05T13:52:47;6.80;;;3.17;;
40599;SDS011;26309;50.924;4.754;2023-06-05T13:55:13;7.95;;;3.30;;
40599;SDS011;26309;50.924;4.754;2023-06-05T13:57:39;3.83;;;3.13;;
40599;SDS011;26309;50.924;4.754;2023-06-05T14:00:06;6.10;;;3.50;;
40599;SDS011;26309;50.924;4.754;2023-06-05T14:02:32;7.10;;;3.45;;
40599;SDS011;26309;50.924;4.754;2023-06-05T14:04:58;6.28;;;3.08;;
40599;SDS011;26309;50.924;4.754;2023-06-05T14:07:25;5.10;;;3.50;;
40599;SDS011;26309;50.924;4.754;2023-06-05T14:09:51;5.68;;;3.33;;
40599;SDS011;26309;50.924;4.754;2023-06-05T14:12:16;6.22;;;3.00;;
40599;SDS011;26309;50.924;4.754;2023-06-05T14:14:42;4.30;;;3.30;;
40599;SDS011;26309;50.924;4.754;2023-06-05T14:17:08;8.38;;;3.33;;
40599;SDS011;26309;50.924;4.754;2023-06-05T14:19:35;7.10;;;3.58;;
40599;SDS011;26309;50.924;4.754;2023-06-05T14:22:01;5.75;;;3.65;;
40599;SDS011;26309;50.924;4.754;2023-06-05T14:24:27;8.07;;;3.42;;
40599;SDS011;26309;50.924;4.754;2023-06-05T14:26:53;8.43;;;3.65;;
40599;SDS011;26309;50.924;4.754;2023-06-05T14:29:20;8.07;;;3.03;;
40599;SDS011;26309;50.924;4.754;2023-06-05T14:31:49;5.30;;;3.00;;
40599;SDS011;26309;50.924;4.754;2023-06-05T14:34:15;5.72;;;3.10;;
40599;SDS011;26309;50.924;4.754;2023-06-05T14:36:41;5.10;;;3.10;;
40599;SDS011;26309;50.924;4.754;2023-06-05T14:39:21;5.70;;;3.40;;
40599;SDS011;26309;50.924;4.754;2023-06-05T14:41:47;5.22;;;3.30;;
40599;SDS011;26309;50.924;4.754;2023-06-05T14:44:13;4.35;;;3.30;;
40599;SDS011;26309;50.924;4.754;2023-06-05T14:46:39;5.50;;;3.00;;
40599;SDS011;26309;50.924;4.754;2023-06-05T14:49:05;6.72;;;3.60;;
40599;SDS011;26309;50.924;4.754;2023-06-05T14:51:31;9.05;;;3.42;;
40599;SDS011;26309;50.924;4.754;2023-06-05T14:53:57;8.35;;;3.10;;
40599;SDS011;26309;50.924;4.754;2023-06-05T14:56:23;7.00;;;3.30;;
40599;SDS011;26309;50.924;4.754;2023-06-05T14:58:48;5.35;;;3.45;;
40599;SDS011;26309;50.924;4.754;2023-06-05T15:01:17;9.15;;;3.45;;
40599;SDS011;26309;50.924;4.754;2023-06-05T15:03:42;6.30;;;3.33;;
40599;SDS011;26309;50.924;4.754;2023-06-05T15:06:10;7.43;;;3.30;;
40599;SDS011;26309;50.924;4.754;2023-06-05T15:08:36;4.45;;;3.40;;
40599;SDS011;26309;50.924;4.754;2023-06-05T15:11:01;5.07;;;3.42;;
40599;SDS011;26309;50.924;4.754;2023-06-05T15:13:27;9.32;;;3.75;;